Time;durP1;ratioP1;P1;durP2;ratioP2;P2;SDS_P1;SDS_P2;PMS_P1;PMS_P2;Temp;Humidity;BMP_temperature;BMP_pressure;BME280_temperature;BME280_humidity;BME280_pressure;Samples;Min_cycle;Max_cycle;Signal;HPM_P1;HPM_P2
2024/01/21 00:00:05;;;;;;;;;;;;;;;;;;5014017;28;20015;-74
2024/01/21 00:02:31;;;;;;;;;;;;;;;;;;5016554;28;19920;-74
2024/01/21 00:04:57;;;;;;;;;;;;;;;;;;5018499;28;20358;-74
2024/01/21 00:07:23;;;;;;;;;;;;;;;;;;5010418;28;19964;-74
2024/01/21 00:09:49;;;;;;;;;;;;;;;;;;5015085;28;20300;-73
2024/01/21 00:12:14;;;;;;;;;;;;;;;;;;5016488;28;20173;-73
2024/01/21 00:14:40;;;;;;;;;;;;;;;;;;5026189;28;19963;-74
2024/01/21 00:17:07;;;;;;;;;;;;;;;;;;5014774;28;19916;-73
2024/01/21 00:19:33;;;;;;;;;;;;;;;;;;5019722;28;20012;-73
2024/01/21 00:21:59;;;;;;;;;;;;;;;;;;5012024;28;19952;-73
2024/01/21 00:24:24;;;;;;;;;;;;;;;;;;5017617;28;19956;-73
2024/01/21 00:26:50;;;;;;;;;;;;;;;;;;5009111;28;20288;-74
2024/01/21 00:29:16;;;;;;;;;;;;;;;;;;5019464;28;19936;-73
2024/01/21 00:31:42;;;;;;;;;;;;;;;;;;5013982;28;20368;-74
2024/01/21 00:34:08;;;;;;;;;;;;;;;;;;5013961;28;19920;-74
2024/01/21 00:36:34;;;;;;;;;;;;;;;;;;5016079;28;20074;-73
2024/01/21 00:39:00;;;;;;;;;;;;;;;;;;5025993;28;20011;-73
2024/01/21 00:41:26;;;;;;;;;;;;;;;;;;5019648;28;19913;-73
2024/01/21 00:43:52;;;;;;;;;;;;;;;;;;5019025;28;19973;-74
2024/01/21 00:46:17;;;;;;;;;;;;;;;;;;5007790;28;19921;-74
2024/01/21 00:48:43;;;;;;;;;;;;;;;;;;5028584;28;19917;-74
2024/01/21 00:51:09;;;;;;;;;;;;;;;;;;5024760;28;19980;-75
2024/01/21 00:53:35;;;;;;;;;;;;;;;;;;5014034;28;19913;-74
2024/01/21 00:56:01;;;;;;;;;;;;;;;;;;5012375;28;20092;-74
2024/01/21 00:58:27;;;;;;;;;;;;;;;;;;5017723;28;19959;-73
2024/01/21 01:00:53;;;;;;;;;;;;;;;;;;5013097;28;20384;-74
2024/01/21 01:03:19;;;;;;;;;;;;;;;;;;5022297;28;19959;-73
2024/01/21 01:05:44;;;;;;;;;;;;;;;;;;5019456;28;19960;-74
2024/01/21 01:08:10;;;;;;;;;;;;;;;;;;5019977;28;19913;-74
2024/01/21 01:10:36;;;;;;;;;;;;;;;;;;5019144;28;19920;-74
2024/01/21 01:13:02;;;;;;;;;;;;;;;;;;5027051;28;19912;-73
2024/01/21 01:15:28;;;;;;;;;;;;;;;;;;5022069;28;19936;-73
2024/01/21 01:17:54;;;;;;;;;;;;;;;;;;5028459;28;19952;-74
2024/01/21 01:20:21;;;;;;;;;;;;;;;;;;5022473;28;20004;-74
2024/01/21 01:22:46;;;;;;;;;;;;;;;;;;5030372;28;19917;-73
2024/01/21 01:25:12;;;;;;;;;;;;;;;;;;5000843;28;19910;-74
2024/01/21 01:27:38;;;;;;;;;;;;;;;;;;5025939;28;20413;-74
2024/01/21 01:30:04;;;;;;;;;;;;;;;;;;5011916;28;19909;-74
2024/01/21 01:32:30;;;;;;;;;;;;;;;;;;5015977;28;19936;-73
2024/01/21 01:34:56;;;;;;;;;;;;;;;;;;5017046;28;19916;-74
2024/01/21 01:37:22;;;;;;;;;;;;;;;;;;5011427;28;19913;-74
2024/01/21 01:39:48;;;;;;;;;;;;;;;;;;5020019;28;20003;-73
2024/01/21 01:42:14;;;;;;;;;;;;;;;;;;5017394;28;19996;-73
2024/01/21 01:44:40;;;;;;;;;;;;;;;;;;5016866;28;19992;-73
2024/01/21 01:47:06;;;;;;;;;;;;;;;;;;5017310;28;19910;-73
2024/01/21 01:49:32;;;;;;;;;;;;;;;;;;5020462;28;19921;-73
2024/01/21 01:51:58;;;;;;;;;;;;;;;;;;5022554;28;19913;-74
2024/01/21 01:54:24;;;;;;;;;;;;;;;;;;5021139;28;20364;-74
2024/01/21 01:56:50;;;;;;;;;;;;;;;;;;5015658;28;19916;-74
2024/01/21 01:59:15;;;;;;;;;;;;;;;;;;5022372;28;19960;-74
2024/01/21 02:01:41;;;;;;;;;;;;;;;;;;5016643;28;20322;-72
2024/01/21 02:04:09;;;;;;;;;;;;;;;;;;5026581;28;19909;-74
2024/01/21 02:06:35;;;;;;;;;;;;;;;;;;5026423;28;20372;-74
2024/01/21 02:09:01;;;;;;;;;;;;;;;;;;5016230;28;19910;-74
2024/01/21 02:11:27;;;;;;;;;;;;;;;;;;5021053;28;19916;-74
2024/01/21 02:13:52;;;;;;;;;;;;;;;;;;5012785;28;19909;-73
2024/01/21 02:16:18;;;;;;;;;;;;;;;;;;5019676;28;19913;-73
2024/01/21 02:18:45;;;;;;;;;;;;;;;;;;5030078;28;19909;-72
2024/01/21 02:21:11;;;;;;;;;;;;;;;;;;5018866;28;20375;-74
2024/01/21 02:23:37;;;;;;;;;;;;;;;;;;5022748;28;19909;-72
2024/01/21 02:26:02;;;;;;;;;;;;;;;;;;5027073;28;20486;-74
2024/01/21 02:28:28;;;;;;;;;;;;;;;;;;5015540;28;19924;-74
2024/01/21 02:30:54;;;;;;;;;;;;;;;;;;5021597;28;19909;-74
2024/01/21 02:33:20;;;;;;;;;;;;;;;;;;5014539;28;19935;-74
2024/01/21 02:35:46;;;;;;;;;;;;;;;;;;5025498;28;19910;-73
2024/01/21 02:38:12;;;;;;;;;;;;;;;;;;5014619;28;19949;-74
2024/01/21 02:40:38;;;;;;;;;;;;;;;;;;5019699;28;19913;-72
2024/01/21 02:43:04;;;;;;;;;;;;;;;;;;5016039;28;19909;-74
2024/01/21 02:45:30;;;;;;;;;;;;;;;;;;5009721;28;19913;-73
2024/01/21 02:47:56;;;;;;;;;;;;;;;;;;5018932;28;19910;-72
2024/01/21 02:50:22;;;;;;;;;;;;;;;;;;5010562;28;19913;-74
2024/01/21 02:52:48;;;;;;;;;;;;;;;;;;5016391;28;19917;-74
2024/01/21 02:55:13;;;;;;;;;;;;;;;;;;5012532;28;19914;-74
2024/01/21 02:57:39;;;;;;;;;;;;;;;;;;5026707;28;19996;-74
2024/01/21 03:00:05;;;;;;;;;;;;;;;;;;5024535;28;19913;-74
2024/01/21 03:02:31;;;;;;;;;;;;;;;;;;5022877;28;19948;-73
2024/01/21 03:04:57;;;;;;;;;;;;;;;;;;5024907;28;19933;-72
2024/01/21 03:07:23;;;;;;;;;;;;;;;;;;5024045;28;19909;-74
2024/01/21 03:09:49;;;;;;;;;;;;;;;;;;5018204;28;19968;-74
2024/01/21 03:12:15;;;;;;;;;;;;;;;;;;5018327;28;20342;-74
2024/01/21 03:14:40;;;;;;;;;;;;;;;;;;5020942;28;20379;-74
2024/01/21 03:17:07;;;;;;;;;;;;;;;;;;5021018;28;19910;-74
2024/01/21 03:19:33;;;;;;;;;;;;;;;;;;5022815;28;20294;-74
2024/01/21 03:22:00;;;;;;;;;;;;;;;;;;5015610;28;20000;-74
2024/01/21 03:24:29;;;;;;;;;;;;;;;;;;5014588;28;20420;-74
2024/01/21 03:26:55;;;;;;;;;;;;;;;;;;5017153;28;19952;-74
2024/01/21 03:30:42;;;;;;;;;;;;;;;;;;5083022;28;19912;-77
2024/01/21 03:33:08;;;;;;;;;;;;;;;;;;5061405;28;19913;-77
2024/01/21 03:35:34;;;;;;;;;;;;;;;;;;5064819;28;19996;-77
2024/01/21 03:38:00;;;;;;;;;;;;;;;;;;5066291;28;19916;-77
2024/01/21 03:40:25;;;;;;;;;;;;;;;;;;5065268;28;19916;-77
2024/01/21 03:42:51;;;;;;;;;;;;;;;;;;5066232;28;19951;-77
2024/01/21 03:45:17;;;;;;;;;;;;;;;;;;5068900;28;20380;-77
2024/01/21 03:47:43;;;;;;;;;;;;;;;;;;5066389;28;19909;-77
2024/01/21 03:50:09;;;;;;;;;;;;;;;;;;5065842;28;20011;-77
2024/01/21 03:52:35;;;;;;;;;;;;;;;;;;5065889;28;19908;-77
2024/01/21 03:55:01;;;;;;;;;;;;;;;;;;5065854;28;19909;-77
2024/01/21 03:57:27;;;;;;;;;;;;;;;;;;5066068;28;19916;-77
2024/01/21 03:59:53;;;;;;;;;;;;;;;;;;5065701;28;19913;-77
2024/01/21 04:02:20;;;;;;;;;;;;;;;;;;5065102;28;19909;-77
2024/01/21 04:04:46;;;;;;;;;;;;;;;;;;5065337;28;19912;-77
2024/01/21 04:07:12;;;;;;;;;;;;;;;;;;5065725;28;19963;-77
2024/01/21 04:09:38;;;;;;;;;;;;;;;;;;5065891;28;20342;-77
2024/01/21 04:12:03;;;;;;;;;;;;;;;;;;5060203;28;19921;-77
2024/01/21 04:14:29;;;;;;;;;;;;;;;;;;5081101;28;19908;-77
2024/01/21 04:16:55;;;;;;;;;;;;;;;;;;5074974;28;19908;-77
2024/01/21 04:19:21;;;;;;;;;;;;;;;;;;5065396;28;20036;-77
2024/01/21 04:21:47;;;;;;;;;;;;;;;;;;5054610;28;20290;-77
2024/01/21 04:24:13;;;;;;;;;;;;;;;;;;5065377;28;19909;-77
2024/01/21 04:26:39;;;;;;;;;;;;;;;;;;5065526;28;19909;-77
2024/01/21 04:29:05;;;;;;;;;;;;;;;;;;5070645;28;19916;-77
2024/01/21 04:31:30;;;;;;;;;;;;;;;;;;5074770;28;20366;-77
2024/01/21 04:33:57;;;;;;;;;;;;;;;;;;5085439;28;19912;-77
2024/01/21 04:36:22;;;;;;;;;;;;;;;;;;5085319;28;19912;-77
2024/01/21 04:38:48;;;;;;;;;;;;;;;;;;5079447;28;19912;-77
2024/01/21 04:41:14;;;;;;;;;;;;;;;;;;5074561;28;19912;-77
2024/01/21 04:43:40;;;;;;;;;;;;;;;;;;5071450;28;19975;-77
2024/01/21 04:46:06;;;;;;;;;;;;;;;;;;5066738;28;19908;-77
2024/01/21 04:48:32;;;;;;;;;;;;;;;;;;5067836;28;20332;-77
2024/01/21 04:50:58;;;;;;;;;;;;;;;;;;5070817;28;19908;-77
2024/01/21 04:53:24;;;;;;;;;;;;;;;;;;5068653;28;19912;-77
2024/01/21 04:55:50;;;;;;;;;;;;;;;;;;5069583;28;19916;-77
2024/01/21 04:58:15;;;;;;;;;;;;;;;;;;5081940;28;20007;-77
2024/01/21 05:00:41;;;;;;;;;;;;;;;;;;5070512;28;19909;-77
2024/01/21 05:03:07;;;;;;;;;;;;;;;;;;5070925;28;19931;-77
2024/01/21 05:05:33;;;;;;;;;;;;;;;;;;5071161;28;19916;-77
2024/01/21 05:07:59;;;;;;;;;;;;;;;;;;5072123;28;19981;-77
2024/01/21 05:10:25;;;;;;;;;;;;;;;;;;5070214;28;19908;-77
2024/01/21 05:12:51;;;;;;;;;;;;;;;;;;5064350;28;20735;-77
2024/01/21 05:15:17;;;;;;;;;;;;;;;;;;5071945;28;19941;-77
2024/01/21 05:17:43;;;;;;;;;;;;;;;;;;5069114;28;19912;-77
2024/01/21 05:20:09;;;;;;;;;;;;;;;;;;5070491;28;20098;-77
2024/01/21 05:22:34;;;;;;;;;;;;;;;;;;5071776;28;20019;-77
2024/01/21 05:25:00;;;;;;;;;;;;;;;;;;5062218;28;19909;-77
2024/01/21 05:27:26;;;;;;;;;;;;;;;;;;5071285;28;19909;-77
2024/01/21 05:29:52;;;;;;;;;;;;;;;;;;5070187;28;19967;-77
2024/01/21 05:32:18;;;;;;;;;;;;;;;;;;5071625;28;19916;-76
2024/01/21 05:34:44;;;;;;;;;;;;;;;;;;5069337;28;19923;-77
2024/01/21 05:37:10;;;;;;;;;;;;;;;;;;5071421;28;19996;-77
2024/01/21 05:39:35;;;;;;;;;;;;;;;;;;5070599;28;19912;-77
2024/01/21 05:42:02;;;;;;;;;;;;;;;;;;5064901;28;19916;-77
2024/01/21 05:44:28;;;;;;;;;;;;;;;;;;5070376;28;19909;-77
2024/01/21 05:46:53;;;;;;;;;;;;;;;;;;5070399;28;19909;-77
2024/01/21 05:49:19;;;;;;;;;;;;;;;;;;5070707;28;19947;-77
2024/01/21 05:51:46;;;;;;;;;;;;;;;;;;5068668;28;20382;-77
2024/01/21 05:54:12;;;;;;;;;;;;;;;;;;5060542;28;19987;-77
2024/01/21 05:56:38;;;;;;;;;;;;;;;;;;5069372;28;20003;-77
2024/01/21 05:59:04;;;;;;;;;;;;;;;;;;5068847;28;20010;-76
2024/01/21 06:01:30;;;;;;;;;;;;;;;;;;5068805;28;19951;-77
2024/01/21 06:03:56;;;;;;;;;;;;;;;;;;5070433;28;19915;-77
2024/01/21 06:06:22;;;;;;;;;;;;;;;;;;5068821;28;19920;-76
2024/01/21 06:08:48;;;;;;;;;;;;;;;;;;5070533;28;19909;-77
2024/01/21 06:11:14;;;;;;;;;;;;;;;;;;5060874;28;20446;-77
2024/01/21 06:13:39;;;;;;;;;;;;;;;;;;5070100;28;19954;-77
2024/01/21 06:16:05;;;;;;;;;;;;;;;;;;5069726;28;19923;-77
2024/01/21 06:18:31;;;;;;;;;;;;;;;;;;5069825;28;19920;-77
2024/01/21 06:20:57;;;;;;;;;;;;;;;;;;5063693;28;19908;-77
2024/01/21 06:23:23;;;;;;;;;;;;;;;;;;5070311;28;19931;-77
2024/01/21 06:25:49;;;;;;;;;;;;;;;;;;5068821;28;19959;-77
2024/01/21 06:28:16;;;;;;;;;;;;;;;;;;5075311;28;20132;-77
2024/01/21 06:30:42;;;;;;;;;;;;;;;;;;5071147;28;20366;-77
2024/01/21 06:33:08;;;;;;;;;;;;;;;;;;5061982;28;19915;-76
2024/01/21 06:35:34;;;;;;;;;;;;;;;;;;5065370;28;20290;-77
2024/01/21 06:37:59;;;;;;;;;;;;;;;;;;5059025;28;20332;-77
2024/01/21 06:40:26;;;;;;;;;;;;;;;;;;5066684;28;19913;-77
2024/01/21 06:42:51;;;;;;;;;;;;;;;;;;5069499;28;19912;-77
2024/01/21 06:45:17;;;;;;;;;;;;;;;;;;5066565;28;19934;-77
2024/01/21 06:47:43;;;;;;;;;;;;;;;;;;5068186;28;19909;-77
2024/01/21 06:50:10;;;;;;;;;;;;;;;;;;5088984;28;19916;-77
2024/01/21 06:52:35;;;;;;;;;;;;;;;;;;5077657;28;19994;-77
2024/01/21 06:55:02;;;;;;;;;;;;;;;;;;5067704;28;19947;-76
2024/01/21 06:57:27;;;;;;;;;;;;;;;;;;5069420;28;20314;-77
2024/01/21 06:59:53;;;;;;;;;;;;;;;;;;5069136;28;20030;-77
2024/01/21 07:02:19;;;;;;;;;;;;;;;;;;5063156;28;19908;-77
2024/01/21 07:04:45;;;;;;;;;;;;;;;;;;5068083;28;19959;-77
2024/01/21 07:07:11;;;;;;;;;;;;;;;;;;5063605;28;20409;-77
2024/01/21 07:09:37;;;;;;;;;;;;;;;;;;5063805;28;19909;-77
2024/01/21 07:12:04;;;;;;;;;;;;;;;;;;5065578;28;19915;-77
2024/01/21 07:14:34;;;;;;;;;;;;;;;;;;5064827;28;19909;-77
2024/01/21 07:17:00;;;;;;;;;;;;;;;;;;5068943;28;19916;-77
2024/01/21 07:19:26;;;;;;;;;;;;;;;;;;5060639;28;20019;-76
2024/01/21 07:21:52;;;;;;;;;;;;;;;;;;5058701;28;20004;-76
2024/01/21 07:24:17;;;;;;;;;;;;;;;;;;5065037;28;19908;-76
2024/01/21 07:26:43;;;;;;;;;;;;;;;;;;5064066;28;19962;-76
2024/01/21 07:29:09;;;;;;;;;;;;;;;;;;5067833;28;19955;-76
2024/01/21 07:31:35;;;;;;;;;;;;;;;;;;5075571;28;20356;-76
2024/01/21 07:34:01;;;;;;;;;;;;;;;;;;5068888;28;19915;-76
2024/01/21 07:36:27;;;;;;;;;;;;;;;;;;5067441;28;19917;-76
2024/01/21 07:38:53;;;;;;;;;;;;;;;;;;5066421;28;19981;-77
2024/01/21 07:41:19;;;;;;;;;;;;;;;;;;5068036;28;19908;-77
2024/01/21 07:43:45;;;;;;;;;;;;;;;;;;5068822;28;20634;-76
2024/01/21 07:46:12;;;;;;;;;;;;;;;;;;5068242;28;19908;-76
2024/01/21 07:48:38;;;;;;;;;;;;;;;;;;5067123;28;19909;-76
2024/01/21 07:51:03;;;;;;;;;;;;;;;;;;5065974;28;20108;-76
2024/01/21 07:53:29;;;;;;;;;;;;;;;;;;5065202;28;19996;-77
2024/01/21 07:55:56;;;;;;;;;;;;;;;;;;5065278;28;20306;-77
2024/01/21 07:58:22;;;;;;;;;;;;;;;;;;5067206;28;20454;-77
2024/01/21 08:00:48;;;;;;;;;;;;;;;;;;5068463;28;19995;-77
2024/01/21 08:03:13;;;;;;;;;;;;;;;;;;5067985;28;19931;-76
2024/01/21 08:05:39;;;;;;;;;;;;;;;;;;5068544;28;19909;-77
2024/01/21 08:08:05;;;;;;;;;;;;;;;;;;5063477;28;19908;-76
2024/01/21 08:10:32;;;;;;;;;;;;;;;;;;5073285;28;19916;-77
2024/01/21 08:12:58;;;;;;;;;;;;;;;;;;5067284;28;19982;-77
2024/01/21 08:15:24;;;;;;;;;;;;;;;;;;5068700;28;19917;-77
2024/01/21 08:17:50;;;;;;;;;;;;;;;;;;5071897;28;20371;-77
2024/01/21 08:20:15;;;;;;;;;;;;;;;;;;5070302;28;19912;-77
2024/01/21 08:22:43;;;;;;;;;;;;;;;;;;5071373;28;20435;-76
2024/01/21 08:25:09;;;;;;;;;;;;;;;;;;5071041;28;19953;-77
2024/01/21 08:27:35;;;;;;;;;;;;;;;;;;5071714;28;19908;-77
2024/01/21 08:30:02;;;;;;;;;;;;;;;;;;5059969;28;19917;-76
2024/01/21 08:32:28;;;;;;;;;;;;;;;;;;5066742;28;19915;-76
2024/01/21 08:34:54;;;;;;;;;;;;;;;;;;5063003;28;19921;-77
2024/01/21 08:37:20;;;;;;;;;;;;;;;;;;5071347;28;20003;-77
2024/01/21 08:39:48;;;;;;;;;;;;;;;;;;5070983;28;19916;-77
2024/01/21 08:42:14;;;;;;;;;;;;;;;;;;5078216;28;19909;-76
2024/01/21 08:44:39;;;;;;;;;;;;;;;;;;5071095;28;20011;-76
2024/01/21 08:47:05;;;;;;;;;;;;;;;;;;5063966;28;20374;-77
2024/01/21 08:49:31;;;;;;;;;;;;;;;;;;5071907;28;19919;-77
2024/01/21 08:51:57;;;;;;;;;;;;;;;;;;5071559;28;19909;-77
2024/01/21 08:54:23;;;;;;;;;;;;;;;;;;5069362;28;20078;-77
2024/01/21 08:56:49;;;;;;;;;;;;;;;;;;5071772;28;20379;-77
2024/01/21 08:59:15;;;;;;;;;;;;;;;;;;5071227;28;20376;-76
2024/01/21 09:01:41;;;;;;;;;;;;;;;;;;5068417;28;19909;-77
2024/01/21 09:04:07;;;;;;;;;;;;;;;;;;5072743;28;19908;-77
2024/01/21 09:06:33;;;;;;;;;;;;;;;;;;5073575;28;20320;-76
2024/01/21 09:08:58;;;;;;;;;;;;;;;;;;5070659;28;19912;-76
2024/01/21 09:11:25;;;;;;;;;;;;;;;;;;5070122;28;19912;-76
2024/01/21 09:13:51;;;;;;;;;;;;;;;;;;5058199;28;20355;-77
2024/01/21 09:16:19;;;;;;;;;;;;;;;;;;5072119;28;19961;-77
2024/01/21 09:18:45;;;;;;;;;;;;;;;;;;5066739;28;19912;-77
2024/01/21 09:21:10;;;;;;;;;;;;;;;;;;5062806;28;19919;-77
2024/01/21 09:23:36;;;;;;;;;;;;;;;;;;5059892;28;20404;-77
2024/01/21 09:26:02;;;;;;;;;;;;;;;;;;5069099;28;19916;-77
2024/01/21 09:28:29;;;;;;;;;;;;;;;;;;5086202;28;19909;-77
2024/01/21 09:30:54;;;;;;;;;;;;;;;;;;5077366;28;20274;-76
2024/01/21 09:33:20;;;;;;;;;;;;;;;;;;5079301;28;19935;-76
2024/01/21 09:35:46;;;;;;;;;;;;;;;;;;5070644;28;19940;-76
2024/01/21 09:38:14;;;;;;;;;;;;;;;;;;5070437;28;20314;-76
2024/01/21 09:40:40;;;;;;;;;;;;;;;;;;5070046;28;19912;-77
2024/01/21 09:43:06;;;;;;;;;;;;;;;;;;5064241;28;19913;-77
2024/01/21 09:45:31;;;;;;;;;;;;;;;;;;5070090;28;20003;-77
2024/01/21 09:47:57;;;;;;;;;;;;;;;;;;5070874;28;20316;-76
2024/01/21 09:50:23;;;;;;;;;;;;;;;;;;5069322;28;20402;-77
2024/01/21 09:52:49;;;;;;;;;;;;;;;;;;5065660;28;19916;-77
2024/01/21 09:55:15;;;;;;;;;;;;;;;;;;5059779;28;19996;-78
2024/01/21 09:57:41;;;;;;;;;;;;;;;;;;5070396;28;20611;-77
2024/01/21 10:00:07;;;;;;;;;;;;;;;;;;5070010;28;19923;-77
2024/01/21 10:02:33;;;;;;;;;;;;;;;;;;5069722;28;19908;-77
2024/01/21 10:04:59;;;;;;;;;;;;;;;;;;5071198;28;19909;-76
2024/01/21 10:07:25;;;;;;;;;;;;;;;;;;5065212;28;19978;-79
2024/01/21 10:09:51;;;;;;;;;;;;;;;;;;5076924;28;19921;-78
2024/01/21 10:12:17;;;;;;;;;;;;;;;;;;5061070;28;20437;-78
2024/01/21 10:14:43;;;;;;;;;;;;;;;;;;5069561;28;19909;-78
2024/01/21 10:17:09;;;;;;;;;;;;;;;;;;5070116;28;20353;-77
2024/01/21 10:19:35;;;;;;;;;;;;;;;;;;5068660;28;19916;-78
2024/01/21 10:22:00;;;;;;;;;;;;;;;;;;5068061;28;19915;-78
2024/01/21 10:24:26;;;;;;;;;;;;;;;;;;5068431;28;20578;-78
2024/01/21 10:26:52;;;;;;;;;;;;;;;;;;5070209;28;19913;-78
2024/01/21 10:29:18;;;;;;;;;;;;;;;;;;5066622;28;19924;-78
2024/01/21 10:31:44;;;;;;;;;;;;;;;;;;5069877;28;19928;-78
2024/01/21 10:34:10;;;;;;;;;;;;;;;;;;5069546;28;19912;-79
2024/01/21 10:36:36;;;;;;;;;;;;;;;;;;5070784;28;19931;-78
2024/01/21 10:39:02;;;;;;;;;;;;;;;;;;5070464;28;20290;-78
2024/01/21 10:41:28;;;;;;;;;;;;;;;;;;5068482;28;19912;-78
2024/01/21 10:43:54;;;;;;;;;;;;;;;;;;5067947;28;19958;-78
2024/01/21 10:46:20;;;;;;;;;;;;;;;;;;5068907;28;20374;-78
2024/01/21 10:48:46;;;;;;;;;;;;;;;;;;5069461;28;19940;-78
2024/01/21 10:51:12;;;;;;;;;;;;;;;;;;5068227;28;19962;-78
2024/01/21 10:53:37;;;;;;;;;;;;;;;;;;5067756;28;19931;-78
2024/01/21 10:56:03;;;;;;;;;;;;;;;;;;5070064;28;19944;-78
2024/01/21 10:58:29;;;;;;;;;;;;;;;;;;5068822;28;20386;-78
2024/01/21 11:00:55;;;;;;;;;;;;;;;;;;5069116;28;19919;-78
2024/01/21 11:03:22;;;;;;;;;;;;;;;;;;5064226;28;19998;-78
2024/01/21 11:05:48;;;;;;;;;;;;;;;;;;5063768;28;19912;-78
2024/01/21 11:08:14;;;;;;;;;;;;;;;;;;5068005;28;19931;-78
2024/01/21 11:10:40;;;;;;;;;;;;;;;;;;5068052;28;20301;-78
2024/01/21 11:13:06;;;;;;;;;;;;;;;;;;5070096;28;19908;-78
2024/01/21 11:15:32;;;;;;;;;;;;;;;;;;5068195;28;19958;-78
2024/01/21 11:17:57;;;;;;;;;;;;;;;;;;5063680;28;19909;-78
2024/01/21 11:20:23;;;;;;;;;;;;;;;;;;5074532;28;20003;-77
2024/01/21 11:22:49;;;;;;;;;;;;;;;;;;5069597;28;19915;-78
2024/01/21 11:25:15;;;;;;;;;;;;;;;;;;5068394;28;19916;-77
2024/01/21 11:27:41;;;;;;;;;;;;;;;;;;5069244;28;20390;-78
2024/01/21 11:30:07;;;;;;;;;;;;;;;;;;5067867;28;19921;-77
2024/01/21 11:32:33;;;;;;;;;;;;;;;;;;5068818;28;19912;-78
2024/01/21 11:34:59;;;;;;;;;;;;;;;;;;5070889;28;20290;-78
2024/01/21 11:37:25;;;;;;;;;;;;;;;;;;5069250;28;19912;-78
2024/01/21 11:39:51;;;;;;;;;;;;;;;;;;5071194;28;19912;-78
2024/01/21 11:42:16;;;;;;;;;;;;;;;;;;5069073;28;19913;-78
2024/01/21 11:44:43;;;;;;;;;;;;;;;;;;5069852;28;20374;-78
2024/01/21 11:47:08;;;;;;;;;;;;;;;;;;5067549;28;19908;-78
2024/01/21 11:49:34;;;;;;;;;;;;;;;;;;5069102;28;19937;-78
2024/01/21 11:52:00;;;;;;;;;;;;;;;;;;5072137;28;20390;-78
2024/01/21 11:54:26;;;;;;;;;;;;;;;;;;5070927;28;19908;-78
2024/01/21 11:56:55;;;;;;;;;;;;;;;;;;5072217;28;20358;-78
2024/01/21 11:59:21;;;;;;;;;;;;;;;;;;5073029;28;19912;-78
2024/01/21 12:01:47;;;;;;;;;;;;;;;;;;5078554;28;20358;-78
2024/01/21 12:04:13;;;;;;;;;;;;;;;;;;5078991;28;19908;-78
2024/01/21 12:06:42;;;;;;;;;;;;;;;;;;5073151;28;19912;-78
2024/01/21 12:09:07;;;;;;;;;;;;;;;;;;5074336;28;19930;-78
2024/01/21 12:11:40;;;;;;;;;;;;;;;;;;5073243;28;20397;-78
2024/01/21 12:14:06;;;;;;;;;;;;;;;;;;5074997;28;19999;-78
2024/01/21 12:16:33;;;;;;;;;;;;;;;;;;5074399;28;19930;-78
2024/01/21 12:18:59;;;;;;;;;;;;;;;;;;5066541;28;19912;-78
2024/01/21 12:21:25;;;;;;;;;;;;;;;;;;5072966;28;20366;-78
2024/01/21 12:23:54;;;;;;;;;;;;;;;;;;5068248;28;19913;-78
2024/01/21 12:26:20;;;;;;;;;;;;;;;;;;5071475;28;20351;-78
2024/01/21 12:28:46;;;;;;;;;;;;;;;;;;5072229;28;19935;-78
2024/01/21 12:31:12;;;;;;;;;;;;;;;;;;5071401;28;19908;-78
2024/01/21 12:33:38;;;;;;;;;;;;;;;;;;5072704;28;19924;-78
2024/01/21 12:36:04;;;;;;;;;;;;;;;;;;5072767;28;19915;-78
2024/01/21 12:38:30;;;;;;;;;;;;;;;;;;5073505;28;20379;-78
2024/01/21 12:40:56;;;;;;;;;;;;;;;;;;5071176;28;19919;-78
2024/01/21 12:43:22;;;;;;;;;;;;;;;;;;5073413;28;19920;-78
2024/01/21 12:45:48;;;;;;;;;;;;;;;;;;5073837;28;19962;-78
2024/01/21 12:48:14;;;;;;;;;;;;;;;;;;5072534;28;19924;-78
2024/01/21 12:50:41;;;;;;;;;;;;;;;;;;5063370;28;19931;-78
2024/01/21 12:53:07;;;;;;;;;;;;;;;;;;5073491;28;19912;-78
2024/01/21 12:55:33;;;;;;;;;;;;;;;;;;5072675;28;19908;-78
2024/01/21 12:57:59;;;;;;;;;;;;;;;;;;5073046;28;19908;-78
2024/01/21 13:00:25;;;;;;;;;;;;;;;;;;5071511;28;20366;-78
2024/01/21 13:02:51;;;;;;;;;;;;;;;;;;5072662;28;20069;-78
2024/01/21 13:05:17;;;;;;;;;;;;;;;;;;5073981;28;19912;-78
2024/01/21 13:07:43;;;;;;;;;;;;;;;;;;5073411;28;19915;-78
2024/01/21 13:10:09;;;;;;;;;;;;;;;;;;5072073;28;20377;-78
2024/01/21 13:12:35;;;;;;;;;;;;;;;;;;5071997;28;19969;-78
2024/01/21 13:15:01;;;;;;;;;;;;;;;;;;5074373;28;19909;-78
2024/01/21 13:17:27;;;;;;;;;;;;;;;;;;5070674;28;19908;-78
2024/01/21 13:19:53;;;;;;;;;;;;;;;;;;5071987;28;19970;-78
2024/01/21 13:22:19;;;;;;;;;;;;;;;;;;5071702;28;20281;-79
2024/01/21 13:24:44;;;;;;;;;;;;;;;;;;5078043;28;20017;-79
2024/01/21 13:27:16;;;;;;;;;;;;;;;;;;5078423;28;19991;-78
2024/01/21 13:32:27;;;;;;;;;;;;;;;;;;5078018;28;20456;-79
2024/01/21 13:34:54;;;;;;;;;;;;;;;;;;5076901;28;19912;-79
2024/01/21 13:37:20;;;;;;;;;;;;;;;;;;5076650;28;19908;-79
2024/01/21 13:39:46;;;;;;;;;;;;;;;;;;5075819;28;19962;-79
2024/01/21 13:42:12;;;;;;;;;;;;;;;;;;5071225;28;20007;-79
2024/01/21 13:44:38;;;;;;;;;;;;;;;;;;5070309;28;20421;-79
2024/01/21 13:47:04;;;;;;;;;;;;;;;;;;5067560;28;19947;-79
2024/01/21 13:49:30;;;;;;;;;;;;;;;;;;5072622;28;19988;-79
2024/01/21 13:51:55;;;;;;;;;;;;;;;;;;5067127;28;19908;-79
2024/01/21 13:54:21;;;;;;;;;;;;;;;;;;5070412;28;19944;-79
2024/01/21 13:56:47;;;;;;;;;;;;;;;;;;5073469;28;19908;-79
2024/01/21 13:59:13;;;;;;;;;;;;;;;;;;5074574;28;20034;-79
2024/01/21 14:01:39;;;;;;;;;;;;;;;;;;5065316;28;20389;-79
2024/01/21 14:04:05;;;;;;;;;;;;;;;;;;5073986;28;19912;-79
2024/01/21 14:06:31;;;;;;;;;;;;;;;;;;5073353;28;20285;-78
2024/01/21 14:08:57;;;;;;;;;;;;;;;;;;5071701;28;19908;-79
2024/01/21 14:11:23;;;;;;;;;;;;;;;;;;5063553;28;20286;-79
2024/01/21 14:13:49;;;;;;;;;;;;;;;;;;5071210;28;19969;-78
2024/01/21 14:16:15;;;;;;;;;;;;;;;;;;5072601;28;20393;-79
2024/01/21 14:18:41;;;;;;;;;;;;;;;;;;5071980;28;20002;-79
2024/01/21 14:21:07;;;;;;;;;;;;;;;;;;5070997;28;19952;-78
2024/01/21 14:23:32;;;;;;;;;;;;;;;;;;5070724;28;19912;-79
2024/01/21 14:26:02;;;;;;;;;;;;;;;;;;5071341;28;20317;-78
2024/01/21 14:28:28;;;;;;;;;;;;;;;;;;5069988;28;19932;-79
2024/01/21 14:30:54;;;;;;;;;;;;;;;;;;5070529;28;20362;-78
2024/01/21 14:33:20;;;;;;;;;;;;;;;;;;5071829;28;19913;-78
2024/01/21 14:35:46;;;;;;;;;;;;;;;;;;5070051;28;19916;-78
2024/01/21 14:38:12;;;;;;;;;;;;;;;;;;5072891;28;19951;-79
2024/01/21 14:40:38;;;;;;;;;;;;;;;;;;5071442;28;19913;-78
2024/01/21 14:43:04;;;;;;;;;;;;;;;;;;5073830;28;19919;-79
2024/01/21 14:45:32;;;;;;;;;;;;;;;;;;5071782;28;19917;-78
2024/01/21 14:47:58;;;;;;;;;;;;;;;;;;5072538;28;19908;-79
2024/01/21 14:50:24;;;;;;;;;;;;;;;;;;5072675;28;19915;-78
2024/01/21 14:52:50;;;;;;;;;;;;;;;;;;5072291;28;19909;-78
2024/01/21 14:55:16;;;;;;;;;;;;;;;;;;5069819;28;19999;-78
2024/01/21 14:57:42;;;;;;;;;;;;;;;;;;5071650;28;19917;-79
2024/01/21 15:00:08;;;;;;;;;;;;;;;;;;5066703;28;19912;-79
2024/01/21 15:02:34;;;;;;;;;;;;;;;;;;5070463;28;19908;-79
2024/01/21 15:05:00;;;;;;;;;;;;;;;;;;5063789;28;20324;-79
2024/01/21 15:07:26;;;;;;;;;;;;;;;;;;5073217;28;19954;-78
2024/01/21 15:09:52;;;;;;;;;;;;;;;;;;5072083;28;19923;-79
2024/01/21 15:12:18;;;;;;;;;;;;;;;;;;5071935;28;19908;-78
2024/01/21 15:14:44;;;;;;;;;;;;;;;;;;5070080;28;20325;-79
2024/01/21 15:17:10;;;;;;;;;;;;;;;;;;5071693;28;19908;-79
2024/01/21 15:19:36;;;;;;;;;;;;;;;;;;5069772;28;19952;-79
2024/01/21 15:22:02;;;;;;;;;;;;;;;;;;5069211;28;20306;-79
2024/01/21 15:24:28;;;;;;;;;;;;;;;;;;5072062;28;19909;-78
2024/01/21 15:26:54;;;;;;;;;;;;;;;;;;5070091;28;19916;-79
2024/01/21 15:29:20;;;;;;;;;;;;;;;;;;5071119;28;19978;-78
2024/01/21 15:31:45;;;;;;;;;;;;;;;;;;5069540;28;19909;-78
2024/01/21 15:34:12;;;;;;;;;;;;;;;;;;5070300;28;19999;-79
2024/01/21 15:36:38;;;;;;;;;;;;;;;;;;5068874;28;19909;-79
2024/01/21 15:39:05;;;;;;;;;;;;;;;;;;5064011;28;19923;-78
2024/01/21 15:41:33;;;;;;;;;;;;;;;;;;5071503;28;19908;-79
2024/01/21 15:43:59;;;;;;;;;;;;;;;;;;5070906;28;19915;-78
2024/01/21 15:46:24;;;;;;;;;;;;;;;;;;5069644;28;19940;-79
2024/01/21 15:48:50;;;;;;;;;;;;;;;;;;5071063;28;19909;-78
2024/01/21 15:51:17;;;;;;;;;;;;;;;;;;5070746;28;19909;-79
2024/01/21 15:53:43;;;;;;;;;;;;;;;;;;5071161;28;20350;-79
2024/01/21 15:56:09;;;;;;;;;;;;;;;;;;5069453;28;19909;-79
2024/01/21 15:58:35;;;;;;;;;;;;;;;;;;5071112;28;19912;-78
2024/01/21 16:01:01;;;;;;;;;;;;;;;;;;5070400;28;19922;-79
2024/01/21 16:03:28;;;;;;;;;;;;;;;;;;5069651;28;19952;-78
2024/01/21 16:05:54;;;;;;;;;;;;;;;;;;5067303;28;20318;-79
2024/01/21 16:08:20;;;;;;;;;;;;;;;;;;5066659;28;19962;-78
2024/01/21 16:10:46;;;;;;;;;;;;;;;;;;5068323;28;19909;-79
2024/01/21 16:13:12;;;;;;;;;;;;;;;;;;5071212;28;19912;-78
2024/01/21 16:15:37;;;;;;;;;;;;;;;;;;5069299;28;19916;-79
2024/01/21 16:18:03;;;;;;;;;;;;;;;;;;5069204;28;20298;-78
2024/01/21 16:20:29;;;;;;;;;;;;;;;;;;5072779;28;20019;-78
2024/01/21 16:22:56;;;;;;;;;;;;;;;;;;5068792;28;19913;-79
2024/01/21 16:25:22;;;;;;;;;;;;;;;;;;5070333;28;19979;-78
2024/01/21 16:27:48;;;;;;;;;;;;;;;;;;5078805;28;19947;-78
2024/01/21 16:30:14;;;;;;;;;;;;;;;;;;5070202;28;20312;-78
2024/01/21 16:32:40;;;;;;;;;;;;;;;;;;5068563;28;19959;-78
2024/01/21 16:35:07;;;;;;;;;;;;;;;;;;5069888;28;19912;-78
2024/01/21 16:37:33;;;;;;;;;;;;;;;;;;5067877;28;20384;-79
2024/01/21 16:40:00;;;;;;;;;;;;;;;;;;5072346;28;19952;-79